createdAt,value
2022-10-07T00:04:47.686Z,99.40
2022-10-07T00:09:45.758Z,99.30
2022-10-07T00:15:33.375Z,99.30
2022-10-07T00:20:37.475Z,99.50
2022-10-07T00:25:37.782Z,99.40
2022-10-07T00:30:35.873Z,99.30
2022-10-07T00:35:38.335Z,99.50
2022-10-07T00:40:37.181Z,99.60
2022-10-07T00:45:37.630Z,99.60
2022-10-07T00:50:37.301Z,99.50
2022-10-07T00:55:35.476Z,99.70
2022-10-07T01:00:33.694Z,99.50
2022-10-07T01:05:32.007Z,99.60
2022-10-07T01:10:39.310Z,99.80
2022-10-07T01:15:41.107Z,99.70
2022-10-07T01:20:47.269Z,99.80
2022-10-07T01:26:05.109Z,99.90
2022-10-07T01:31:06.587Z,99.90
2022-10-07T01:36:10.555Z,99.90
2022-10-07T01:41:12.592Z,99.90
2022-10-07T01:46:19.143Z,99.90
2022-10-07T01:51:20.070Z,99.90
2022-10-07T01:56:34.738Z,99.90
2022-10-07T02:01:43.597Z,99.90
2022-10-07T02:06:52.233Z,99.90
2022-10-07T02:11:56.174Z,99.90
2022-10-07T02:17:02.908Z,99.90
2022-10-07T02:22:03.262Z,99.90
2022-10-07T02:27:08.957Z,99.90
2022-10-07T02:32:12.747Z,99.90
2022-10-07T02:37:19.000Z,99.90
2022-10-07T02:42:26.152Z,99.90
2022-10-07T02:47:32.128Z,99.90
2022-10-07T02:52:32.999Z,99.90
2022-10-07T02:57:34.824Z,99.90
2022-10-07T03:02:39.349Z,99.90
2022-10-07T03:07:37.889Z,99.90
2022-10-07T03:12:37.225Z,99.90
2022-10-07T03:17:36.887Z,99.90
2022-10-07T03:22:35.700Z,99.90
2022-10-07T03:27:34.617Z,99.90
2022-10-07T03:32:33.118Z,99.90
2022-10-07T03:37:32.632Z,99.90
2022-10-07T03:42:31.738Z,99.90
2022-10-07T03:47:29.941Z,99.90
2022-10-07T03:52:28.709Z,99.90
2022-10-07T03:57:47.556Z,99.90
2022-10-07T04:02:46.000Z,99.90
2022-10-07T04:07:44.948Z,99.90
2022-10-07T04:12:45.705Z,99.90
2022-10-07T04:17:46.735Z,99.90
2022-10-07T04:22:47.264Z,99.90
2022-10-07T04:27:52.506Z,99.90
2022-10-07T04:32:52.564Z,99.90
2022-10-07T04:37:54.531Z,99.90
2022-10-07T04:43:14.196Z,99.90
2022-10-07T04:48:13.028Z,99.90
2022-10-07T04:53:14.372Z,99.90
2022-10-07T04:58:14.493Z,99.90
2022-10-07T05:03:14.306Z,99.90
2022-10-07T05:08:12.777Z,99.90
2022-10-07T05:13:14.275Z,99.90
2022-10-07T05:18:13.950Z,99.90
2022-10-07T05:23:12.238Z,99.90
2022-10-07T05:28:11.784Z,99.90
2022-10-07T05:33:12.383Z,99.90
2022-10-07T05:38:11.865Z,99.90
2022-10-07T05:43:11.506Z,99.90
2022-10-07T05:48:09.759Z,99.90
2022-10-07T05:53:09.344Z,99.90
2022-10-07T05:58:07.663Z,99.90
2022-10-07T06:03:06.090Z,99.90
2022-10-07T06:08:05.439Z,99.90
2022-10-07T06:13:10.961Z,99.90
2022-10-07T06:18:12.052Z,99.90
2022-10-07T06:23:10.304Z,99.90
2022-10-07T06:28:09.896Z,99.90
2022-10-07T06:33:08.393Z,99.90
2022-10-07T06:38:07.333Z,99.90
2022-10-07T06:43:06.428Z,99.90
2022-10-07T06:48:19.095Z,99.90
2022-10-07T06:53:17.373Z,99.90
2022-10-07T06:58:16.707Z,99.90
2022-10-07T07:03:16.004Z,99.90
2022-10-07T07:08:17.344Z,99.90
2022-10-07T07:13:16.298Z,99.90
2022-10-07T07:18:14.575Z,99.90
2022-10-07T07:23:13.381Z,99.90
2022-10-07T07:28:16.083Z,99.90
2022-10-07T07:33:14.802Z,99.90
2022-10-07T07:38:13.370Z,99.90
2022-10-07T07:43:13.021Z,99.90
2022-10-07T07:48:13.025Z,99.90
2022-10-07T07:53:11.591Z,99.90
2022-10-07T07:58:11.958Z,99.90
2022-10-07T08:03:13.066Z,99.90
2022-10-07T08:08:14.822Z,99.90
2022-10-07T08:13:14.496Z,99.90
2022-10-07T08:18:14.054Z,99.90
2022-10-07T08:23:12.233Z,99.90
2022-10-07T08:28:10.540Z,99.90
2022-10-07T08:33:08.752Z,99.90
2022-10-07T08:38:11.401Z,99.90
2022-10-07T08:43:12.940Z,99.90
2022-10-07T08:48:17.030Z,99.90
2022-10-07T08:53:20.553Z,99.90
2022-10-07T08:58:40.868Z,99.90
2022-10-07T09:03:50.109Z,99.90
2022-10-07T09:08:57.238Z,99.90
2022-10-07T09:20:53.951Z,99.90
2022-10-07T09:25:53.796Z,99.90
2022-10-07T09:30:52.021Z,99.90
2022-10-07T09:35:57.584Z,99.90
2022-10-07T09:41:19.446Z,99.90
2022-10-07T09:46:34.959Z,99.90
2022-10-07T09:51:35.158Z,99.90
2022-10-07T09:56:40.570Z,99.90
2022-10-07T10:01:41.791Z,99.90
2022-10-07T10:06:47.202Z,99.90
2022-10-07T10:11:46.997Z,99.90
2022-10-07T10:16:47.911Z,99.80
2022-10-07T10:21:52.652Z,99.90
2022-10-07T10:27:03.766Z,99.90
2022-10-07T10:32:41.914Z,99.40
2022-10-07T10:37:58.072Z,99.20
2022-10-07T10:43:04.980Z,99.40
2022-10-07T10:48:29.070Z,99.30
2022-10-07T10:53:39.097Z,98.60
2022-10-07T10:58:53.202Z,98.00
2022-10-07T11:04:20.643Z,98.00
2022-10-07T11:09:31.011Z,98.20
2022-10-07T11:14:32.000Z,97.60
2022-10-07T11:19:34.772Z,96.70
2022-10-07T11:24:39.287Z,96.40
2022-10-07T11:29:49.367Z,95.40
2022-10-07T11:34:54.805Z,95.60
2022-10-07T11:39:53.987Z,95.70
2022-10-07T11:45:00.295Z,95.80
2022-10-07T11:50:03.965Z,95.60
2022-10-07T11:55:07.029Z,95.70
2022-10-07T12:00:10.036Z,96.20
2022-10-07T12:05:43.810Z,95.10
2022-10-07T12:10:41.916Z,95.10
2022-10-07T12:15:43.015Z,94.20
2022-10-07T12:27:33.266Z,94.20
2022-10-07T12:33:00.884Z,95.00
2022-10-07T12:38:17.255Z,94.60
2022-10-07T12:43:32.226Z,94.50
2022-10-07T12:48:37.716Z,94.70
2022-10-07T12:53:42.196Z,94.80
2022-10-07T12:59:13.265Z,94.10
2022-10-07T13:05:12.688Z,94.10
2022-10-07T13:10:31.916Z,94.20
2022-10-07T13:15:41.482Z,93.90
2022-10-07T13:21:03.450Z,93.70
2022-10-07T13:26:02.837Z,93.30
2022-10-07T13:31:14.756Z,93.00
2022-10-07T13:36:21.162Z,92.50
2022-10-07T13:41:26.975Z,92.10
2022-10-07T13:46:26.934Z,91.90
2022-10-07T13:51:35.680Z,92.20
2022-10-07T13:56:36.141Z,92.00
2022-10-07T14:01:39.652Z,92.20
2022-10-07T14:06:46.123Z,92.80
2022-10-07T14:11:44.615Z,92.90
2022-10-07T14:16:42.867Z,92.70
2022-10-07T14:21:43.247Z,92.90
2022-10-07T14:26:44.731Z,92.60
2022-10-07T14:32:00.178Z,92.00
2022-10-07T14:37:04.023Z,92.40
2022-10-07T14:42:02.627Z,92.20
2022-10-07T14:47:05.345Z,92.10
2022-10-07T14:52:06.309Z,92.50
2022-10-07T14:57:04.453Z,92.60
2022-10-07T15:02:02.568Z,92.30
2022-10-07T15:07:00.718Z,92.50
2022-10-07T15:12:00.178Z,92.40
2022-10-07T15:16:58.362Z,92.40
2022-10-07T15:21:56.688Z,92.80
2022-10-07T15:26:54.908Z,93.10
2022-10-07T15:31:54.909Z,93.00
2022-10-07T15:36:53.059Z,93.00
2022-10-07T15:41:51.202Z,93.20
2022-10-07T15:46:50.726Z,93.30
2022-10-07T15:51:50.193Z,93.50
2022-10-07T15:56:50.210Z,93.70
2022-10-07T16:01:51.853Z,94.00
2022-10-07T16:06:52.275Z,94.30
2022-10-07T16:11:50.598Z,94.20
2022-10-07T16:17:38.407Z,94.50
2022-10-07T16:22:37.923Z,95.30
2022-10-07T16:27:49.916Z,95.30
2022-10-07T16:32:49.460Z,94.80
2022-10-07T16:37:52.357Z,95.20
2022-10-07T16:42:51.115Z,95.70
2022-10-07T16:47:49.203Z,95.70
2022-10-07T16:52:48.873Z,95.70
2022-10-07T16:57:48.734Z,96.20
2022-10-07T17:02:47.114Z,96.10
2022-10-07T17:07:45.323Z,96.30
2022-10-07T17:12:45.906Z,96.40
2022-10-07T17:17:44.469Z,96.40
2022-10-07T17:22:43.258Z,96.50
2022-10-07T17:27:41.505Z,96.60
2022-10-07T17:39:36.620Z,97.30
2022-10-07T17:44:34.748Z,97.10
2022-10-07T17:49:32.857Z,97.60
2022-10-07T17:54:31.273Z,97.20
2022-10-07T17:59:30.725Z,97.40
2022-10-07T18:04:28.892Z,97.60
2022-10-07T18:09:27.516Z,97.70
2022-10-07T18:14:43.833Z,97.80
2022-10-07T18:19:45.038Z,97.80
2022-10-07T18:24:43.112Z,97.80
2022-10-07T18:29:41.215Z,98.00
2022-10-07T18:34:39.388Z,98.10
2022-10-07T18:39:38.900Z,98.20
2022-10-07T18:44:36.992Z,98.30
2022-10-07T18:49:35.205Z,98.50
2022-10-07T18:54:33.302Z,98.50
2022-10-07T18:59:32.830Z,98.60
2022-10-07T19:04:31.682Z,98.60
2022-10-07T19:09:30.008Z,98.70
2022-10-07T19:14:31.071Z,98.60
2022-10-07T19:19:30.762Z,98.80
2022-10-07T19:24:42.783Z,98.90
2022-10-07T19:30:21.874Z,98.90
2022-10-07T19:35:21.612Z,99.20
2022-10-07T19:40:19.703Z,99.00
2022-10-07T19:45:17.849Z,99.10
2022-10-07T19:50:16.080Z,99.20
2022-10-07T19:55:15.689Z,99.30
2022-10-07T20:00:14.407Z,99.30
2022-10-07T20:05:12.508Z,97.90
2022-10-07T20:10:10.780Z,98.90
2022-10-07T20:15:13.917Z,99.10
2022-10-07T20:20:13.135Z,99.40
2022-10-07T20:25:11.487Z,99.50
2022-10-07T20:30:17.798Z,99.40
2022-10-07T20:35:16.496Z,99.60
2022-10-07T20:40:32.196Z,99.40
2022-10-07T20:45:51.769Z,99.50
2022-10-07T20:50:50.927Z,99.30
2022-10-07T20:55:49.071Z,99.50
2022-10-07T21:00:48.715Z,99.40
2022-10-07T21:05:46.795Z,99.50
2022-10-07T21:10:44.856Z,99.50
2022-10-07T21:15:43.124Z,99.50
2022-10-07T21:20:56.490Z,99.50
2022-10-07T21:25:55.298Z,99.70
2022-10-07T21:30:56.473Z,99.70
2022-10-07T21:36:00.335Z,99.80
2022-10-07T21:41:00.332Z,99.80
2022-10-07T21:45:59.216Z,99.60
2022-10-07T21:51:01.289Z,99.90
2022-10-07T21:56:04.669Z,99.90
2022-10-07T22:01:04.706Z,99.90
2022-10-07T22:06:04.930Z,99.90
2022-10-07T22:11:04.502Z,99.90
2022-10-07T22:16:03.870Z,99.90
2022-10-07T22:21:04.792Z,99.90
2022-10-07T22:26:03.217Z,99.90
2022-10-07T22:31:03.606Z,99.90
2022-10-07T22:36:05.372Z,99.90
2022-10-07T22:41:03.924Z,99.90
2022-10-07T22:46:02.009Z,99.90
2022-10-07T22:51:06.189Z,99.90
2022-10-07T22:56:06.487Z,99.90
2022-10-07T23:01:05.141Z,99.90
2022-10-07T23:06:03.525Z,99.90
2022-10-07T23:11:03.745Z,99.90
2022-10-07T23:16:04.585Z,99.90
2022-10-07T23:21:04.412Z,99.90
2022-10-07T23:26:02.534Z,99.90
2022-10-07T23:31:06.004Z,99.90
2022-10-07T23:36:06.738Z,99.90
2022-10-07T23:41:05.185Z,99.90
2022-10-07T23:46:07.235Z,99.90
2022-10-07T23:51:07.121Z,99.90
2022-10-07T23:56:05.406Z,99.90
